sensor_id;sensor_type;location;lat;lon;timestamp;temperature;humidity
20416;DHT22;10367;52.202;5.996;2022-07-29T00:02:00;16.10;99.90
20416;DHT22;10367;52.202;5.996;2022-07-29T00:04:29;16.00;99.90
20416;DHT22;10367;52.202;5.996;2022-07-29T00:06:58;16.00;99.90
20416;DHT22;10367;52.202;5.996;2022-07-29T00:09:26;15.90;99.90
20416;DHT22;10367;52.202;5.996;2022-07-29T00:11:58;15.80;99.90
20416;DHT22;10367;52.202;5.996;2022-07-29T00:14:27;15.80;99.90
20416;DHT22;10367;52.202;5.996;2022-07-29T00:16:56;15.80;99.90
20416;DHT22;10367;52.202;5.996;2022-07-29T00:19:26;15.80;99.90
20416;DHT22;10367;52.202;5.996;2022-07-29T00:21:55;15.80;99.90
20416;DHT22;10367;52.202;5.996;2022-07-29T00:24:23;15.70;99.90
20416;DHT22;10367;52.202;5.996;2022-07-29T00:26:52;15.70;99.90
20416;DHT22;10367;52.202;5.996;2022-07-29T00:29:23;15.60;99.90
20416;DHT22;10367;52.202;5.996;2022-07-29T00:32:01;15.60;99.90
20416;DHT22;10367;52.202;5.996;2022-07-29T00:34:31;15.60;99.90
20416;DHT22;10367;52.202;5.996;2022-07-29T00:37:17;15.50;99.90
20416;DHT22;10367;52.202;5.996;2022-07-29T00:39:46;15.50;99.90
20416;DHT22;10367;52.202;5.996;2022-07-29T00:42:15;15.50;99.90
20416;DHT22;10367;52.202;5.996;2022-07-29T00:44:44;15.50;99.90
20416;DHT22;10367;52.202;5.996;2022-07-29T00:47:13;15.50;99.90
20416;DHT22;10367;52.202;5.996;2022-07-29T00:49:43;15.50;99.90
20416;DHT22;10367;52.202;5.996;2022-07-29T00:52:12;15.40;99.90
20416;DHT22;10367;52.202;5.996;2022-07-29T00:54:43;15.40;99.90
20416;DHT22;10367;52.202;5.996;2022-07-29T00:57:12;15.40;99.90
20416;DHT22;10367;52.202;5.996;2022-07-29T00:59:41;15.30;99.90
20416;DHT22;10367;52.202;5.996;2022-07-29T01:02:09;15.30;99.90
20416;DHT22;10367;52.202;5.996;2022-07-29T01:04:39;15.30;99.90
20416;DHT22;10367;52.202;5.996;2022-07-29T01:07:10;15.30;99.90
20416;DHT22;10367;52.202;5.996;2022-07-29T01:09:39;15.30;99.90
20416;DHT22;10367;52.202;5.996;2022-07-29T01:12:17;15.20;99.90
20416;DHT22;10367;52.202;5.996;2022-07-29T01:14:46;15.20;99.90
20416;DHT22;10367;52.202;5.996;2022-07-29T01:17:19;15.20;99.90
20416;DHT22;10367;52.202;5.996;2022-07-29T01:19:59;15.20;99.90
20416;DHT22;10367;52.202;5.996;2022-07-29T01:22:40;15.20;99.90
20416;DHT22;10367;52.202;5.996;2022-07-29T01:25:32;15.20;99.90
20416;DHT22;10367;52.202;5.996;2022-07-29T01:28:36;15.20;99.90
20416;DHT22;10367;52.202;5.996;2022-07-29T01:31:10;15.20;99.90
20416;DHT22;10367;52.202;5.996;2022-07-29T01:33:57;15.20;99.90
20416;DHT22;10367;52.202;5.996;2022-07-29T01:36:30;15.30;99.90
20416;DHT22;10367;52.202;5.996;2022-07-29T01:39:06;15.20;99.90
20416;DHT22;10367;52.202;5.996;2022-07-29T01:41:40;15.10;99.90
20416;DHT22;10367;52.202;5.996;2022-07-29T01:44:18;15.10;99.90
20416;DHT22;10367;52.202;5.996;2022-07-29T01:46:51;15.10;99.90
20416;DHT22;10367;52.202;5.996;2022-07-29T01:49:24;15.10;99.90
20416;DHT22;10367;52.202;5.996;2022-07-29T01:51:58;15.00;99.90
20416;DHT22;10367;52.202;5.996;2022-07-29T01:54:32;15.00;99.90
20416;DHT22;10367;52.202;5.996;2022-07-29T01:57:04;15.00;99.90
20416;DHT22;10367;52.202;5.996;2022-07-29T01:59:37;15.00;99.90
20416;DHT22;10367;52.202;5.996;2022-07-29T02:02:08;14.90;99.90
20416;DHT22;10367;52.202;5.996;2022-07-29T02:04:40;15.00;99.90
20416;DHT22;10367;52.202;5.996;2022-07-29T02:07:13;15.00;99.90
20416;DHT22;10367;52.202;5.996;2022-07-29T02:09:45;15.00;99.90
20416;DHT22;10367;52.202;5.996;2022-07-29T02:12:17;15.00;99.90
20416;DHT22;10367;52.202;5.996;2022-07-29T02:14:53;15.00;99.90
20416;DHT22;10367;52.202;5.996;2022-07-29T02:17:24;15.10;99.90
20416;DHT22;10367;52.202;5.996;2022-07-29T02:19:58;15.10;99.90
20416;DHT22;10367;52.202;5.996;2022-07-29T02:22:30;15.10;99.90
20416;DHT22;10367;52.202;5.996;2022-07-29T02:24:59;15.10;99.90
20416;DHT22;10367;52.202;5.996;2022-07-29T02:27:31;15.10;99.90
20416;DHT22;10367;52.202;5.996;2022-07-29T02:30:04;15.20;99.90
20416;DHT22;10367;52.202;5.996;2022-07-29T02:32:35;15.10;99.90
20416;DHT22;10367;52.202;5.996;2022-07-29T02:35:07;15.20;99.90
20416;DHT22;10367;52.202;5.996;2022-07-29T02:37:37;15.20;99.90
20416;DHT22;10367;52.202;5.996;2022-07-29T02:40:10;15.20;99.90
20416;DHT22;10367;52.202;5.996;2022-07-29T02:42:42;15.20;99.90
20416;DHT22;10367;52.202;5.996;2022-07-29T02:45:13;15.30;99.90
20416;DHT22;10367;52.202;5.996;2022-07-29T02:47:43;15.30;99.90
20416;DHT22;10367;52.202;5.996;2022-07-29T02:50:20;15.30;99.90
20416;DHT22;10367;52.202;5.996;2022-07-29T02:52:53;15.30;99.90
20416;DHT22;10367;52.202;5.996;2022-07-29T02:55:26;15.40;99.90
20416;DHT22;10367;52.202;5.996;2022-07-29T02:57:59;15.40;99.90
20416;DHT22;10367;52.202;5.996;2022-07-29T03:00:33;15.40;99.90
20416;DHT22;10367;52.202;5.996;2022-07-29T03:03:06;15.40;99.90
20416;DHT22;10367;52.202;5.996;2022-07-29T03:05:35;15.40;99.90
20416;DHT22;10367;52.202;5.996;2022-07-29T03:08:08;15.40;99.90
20416;DHT22;10367;52.202;5.996;2022-07-29T03:10:38;15.50;99.90
20416;DHT22;10367;52.202;5.996;2022-07-29T03:13:08;15.40;99.90
20416;DHT22;10367;52.202;5.996;2022-07-29T03:15:39;15.30;99.90
20416;DHT22;10367;52.202;5.996;2022-07-29T03:18:08;15.40;99.90
20416;DHT22;10367;52.202;5.996;2022-07-29T03:20:38;15.30;99.90
20416;DHT22;10367;52.202;5.996;2022-07-29T03:23:08;15.30;99.90
20416;DHT22;10367;52.202;5.996;2022-07-29T03:25:37;15.20;99.90
20416;DHT22;10367;52.202;5.996;2022-07-29T03:28:06;15.30;99.90
20416;DHT22;10367;52.202;5.996;2022-07-29T03:30:34;15.20;99.90
20416;DHT22;10367;52.202;5.996;2022-07-29T03:33:06;15.20;99.90
20416;DHT22;10367;52.202;5.996;2022-07-29T03:35:40;15.20;99.90
20416;DHT22;10367;52.202;5.996;2022-07-29T03:38:08;15.20;99.90
20416;DHT22;10367;52.202;5.996;2022-07-29T03:40:42;15.30;99.90
20416;DHT22;10367;52.202;5.996;2022-07-29T03:43:14;15.30;99.90
20416;DHT22;10367;52.202;5.996;2022-07-29T03:45:48;15.30;99.90
20416;DHT22;10367;52.202;5.996;2022-07-29T03:48:21;15.30;99.90
20416;DHT22;10367;52.202;5.996;2022-07-29T03:50:50;15.30;99.90
20416;DHT22;10367;52.202;5.996;2022-07-29T03:53:19;15.30;99.90
20416;DHT22;10367;52.202;5.996;2022-07-29T03:55:52;15.20;99.90
20416;DHT22;10367;52.202;5.996;2022-07-29T03:58:22;15.10;99.90
20416;DHT22;10367;52.202;5.996;2022-07-29T04:00:52;15.00;99.90
20416;DHT22;10367;52.202;5.996;2022-07-29T04:03:23;15.00;99.90
20416;DHT22;10367;52.202;5.996;2022-07-29T04:06:00;15.00;99.90
20416;DHT22;10367;52.202;5.996;2022-07-29T04:08:29;14.90;99.90
20416;DHT22;10367;52.202;5.996;2022-07-29T04:10:57;14.80;99.90
20416;DHT22;10367;52.202;5.996;2022-07-29T04:13:26;14.80;99.90
20416;DHT22;10367;52.202;5.996;2022-07-29T04:15:55;14.70;99.90
20416;DHT22;10367;52.202;5.996;2022-07-29T04:18:25;14.60;99.90
20416;DHT22;10367;52.202;5.996;2022-07-29T04:20:53;14.60;99.90
20416;DHT22;10367;52.202;5.996;2022-07-29T04:23:22;14.60;99.90
20416;DHT22;10367;52.202;5.996;2022-07-29T04:25:51;14.60;99.90
20416;DHT22;10367;52.202;5.996;2022-07-29T04:28:20;14.50;99.90
20416;DHT22;10367;52.202;5.996;2022-07-29T04:30:49;14.50;99.90
20416;DHT22;10367;52.202;5.996;2022-07-29T04:33:18;14.50;99.90
20416;DHT22;10367;52.202;5.996;2022-07-29T04:35:48;14.50;99.90
20416;DHT22;10367;52.202;5.996;2022-07-29T04:38:21;14.50;99.90
20416;DHT22;10367;52.202;5.996;2022-07-29T04:40:50;14.50;99.90
20416;DHT22;10367;52.202;5.996;2022-07-29T04:43:18;14.50;99.90
20416;DHT22;10367;52.202;5.996;2022-07-29T04:45:49;14.40;99.90
20416;DHT22;10367;52.202;5.996;2022-07-29T04:48:18;14.30;99.90
20416;DHT22;10367;52.202;5.996;2022-07-29T04:50:56;14.20;99.90
20416;DHT22;10367;52.202;5.996;2022-07-29T04:53:25;14.20;99.90
20416;DHT22;10367;52.202;5.996;2022-07-29T04:55:54;14.30;99.90
20416;DHT22;10367;52.202;5.996;2022-07-29T04:58:23;14.30;99.90
20416;DHT22;10367;52.202;5.996;2022-07-29T05:00:52;14.20;99.90
20416;DHT22;10367;52.202;5.996;2022-07-29T05:03:20;14.30;99.90
20416;DHT22;10367;52.202;5.996;2022-07-29T05:05:49;14.20;99.90
20416;DHT22;10367;52.202;5.996;2022-07-29T05:08:19;14.20;99.90
20416;DHT22;10367;52.202;5.996;2022-07-29T05:10:48;14.20;99.90
20416;DHT22;10367;52.202;5.996;2022-07-29T05:13:16;14.20;99.90
20416;DHT22;10367;52.202;5.996;2022-07-29T05:15:45;14.20;99.90
20416;DHT22;10367;52.202;5.996;2022-07-29T05:18:14;14.30;99.90
20416;DHT22;10367;52.202;5.996;2022-07-29T05:20:42;14.30;99.90
20416;DHT22;10367;52.202;5.996;2022-07-29T05:23:12;14.30;99.90
20416;DHT22;10367;52.202;5.996;2022-07-29T05:25:43;14.30;99.90
20416;DHT22;10367;52.202;5.996;2022-07-29T05:28:12;14.30;99.90
20416;DHT22;10367;52.202;5.996;2022-07-29T05:30:41;14.30;99.90
20416;DHT22;10367;52.202;5.996;2022-07-29T05:33:11;14.30;99.90
20416;DHT22;10367;52.202;5.996;2022-07-29T05:36:00;14.50;99.90
20416;DHT22;10367;52.202;5.996;2022-07-29T05:38:29;14.50;99.90
20416;DHT22;10367;52.202;5.996;2022-07-29T05:41:07;14.50;99.90
20416;DHT22;10367;52.202;5.996;2022-07-29T05:43:36;14.50;99.90
20416;DHT22;10367;52.202;5.996;2022-07-29T05:46:05;14.50;99.90
20416;DHT22;10367;52.202;5.996;2022-07-29T05:48:33;14.50;99.90
20416;DHT22;10367;52.202;5.996;2022-07-29T05:51:03;14.60;99.90
20416;DHT22;10367;52.202;5.996;2022-07-29T05:53:32;14.70;99.90
20416;DHT22;10367;52.202;5.996;2022-07-29T05:56:03;14.90;99.90
20416;DHT22;10367;52.202;5.996;2022-07-29T05:58:34;14.90;99.90
20416;DHT22;10367;52.202;5.996;2022-07-29T06:01:03;14.90;99.90
20416;DHT22;10367;52.202;5.996;2022-07-29T06:03:32;15.00;99.90
20416;DHT22;10367;52.202;5.996;2022-07-29T06:06:01;15.10;99.90
20416;DHT22;10367;52.202;5.996;2022-07-29T06:08:30;15.30;99.90
20416;DHT22;10367;52.202;5.996;2022-07-29T06:11:01;15.30;99.90
20416;DHT22;10367;52.202;5.996;2022-07-29T06:13:29;15.20;99.90
20416;DHT22;10367;52.202;5.996;2022-07-29T06:16:00;15.20;99.90
20416;DHT22;10367;52.202;5.996;2022-07-29T06:18:28;15.20;99.90
20416;DHT22;10367;52.202;5.996;2022-07-29T06:20:57;15.30;99.90
20416;DHT22;10367;52.202;5.996;2022-07-29T06:23:26;15.30;99.90
20416;DHT22;10367;52.202;5.996;2022-07-29T06:25:55;15.30;99.90
20416;DHT22;10367;52.202;5.996;2022-07-29T06:28:24;15.30;99.90
20416;DHT22;10367;52.202;5.996;2022-07-29T06:30:53;15.30;99.90
20416;DHT22;10367;52.202;5.996;2022-07-29T06:33:23;15.30;99.90
20416;DHT22;10367;52.202;5.996;2022-07-29T06:35:52;15.30;99.90
20416;DHT22;10367;52.202;5.996;2022-07-29T06:38:21;15.40;99.90
20416;DHT22;10367;52.202;5.996;2022-07-29T06:41:01;15.50;99.90
20416;DHT22;10367;52.202;5.996;2022-07-29T06:43:32;15.60;99.90
20416;DHT22;10367;52.202;5.996;2022-07-29T06:46:21;15.70;99.90
20416;DHT22;10367;52.202;5.996;2022-07-29T06:48:52;15.90;99.90
20416;DHT22;10367;52.202;5.996;2022-07-29T06:51:21;16.00;99.90
20416;DHT22;10367;52.202;5.996;2022-07-29T06:53:51;16.00;99.90
20416;DHT22;10367;52.202;5.996;2022-07-29T06:56:29;16.00;99.90
20416;DHT22;10367;52.202;5.996;2022-07-29T06:59:06;16.00;99.90
20416;DHT22;10367;52.202;5.996;2022-07-29T07:01:36;16.00;99.90
20416;DHT22;10367;52.202;5.996;2022-07-29T07:04:07;15.80;99.90
20416;DHT22;10367;52.202;5.996;2022-07-29T07:06:36;15.90;99.90
20416;DHT22;10367;52.202;5.996;2022-07-29T07:09:05;15.90;99.90
20416;DHT22;10367;52.202;5.996;2022-07-29T07:11:34;16.10;99.90
20416;DHT22;10367;52.202;5.996;2022-07-29T07:14:03;16.20;99.90
20416;DHT22;10367;52.202;5.996;2022-07-29T07:16:32;16.40;99.90
20416;DHT22;10367;52.202;5.996;2022-07-29T07:19:01;16.40;99.90
20416;DHT22;10367;52.202;5.996;2022-07-29T07:21:32;16.40;99.90
20416;DHT22;10367;52.202;5.996;2022-07-29T07:24:02;16.40;99.90
20416;DHT22;10367;52.202;5.996;2022-07-29T07:26:31;16.40;99.90
20416;DHT22;10367;52.202;5.996;2022-07-29T07:28:59;16.40;99.90
20416;DHT22;10367;52.202;5.996;2022-07-29T07:31:28;16.40;99.90
20416;DHT22;10367;52.202;5.996;2022-07-29T07:33:57;16.60;99.90
20416;DHT22;10367;52.202;5.996;2022-07-29T07:36:26;16.70;99.90
20416;DHT22;10367;52.202;5.996;2022-07-29T07:38:56;16.70;99.90
20416;DHT22;10367;52.202;5.996;2022-07-29T07:41:25;16.60;99.90
20416;DHT22;10367;52.202;5.996;2022-07-29T07:43:58;16.70;99.90
20416;DHT22;10367;52.202;5.996;2022-07-29T07:46:27;16.70;99.90
20416;DHT22;10367;52.202;5.996;2022-07-29T07:48:56;16.70;99.90
20416;DHT22;10367;52.202;5.996;2022-07-29T07:51:24;16.90;99.90
20416;DHT22;10367;52.202;5.996;2022-07-29T07:53:55;17.00;99.90
20416;DHT22;10367;52.202;5.996;2022-07-29T07:56:24;17.20;99.90
20416;DHT22;10367;52.202;5.996;2022-07-29T07:58:52;17.30;99.90
20416;DHT22;10367;52.202;5.996;2022-07-29T08:01:21;17.30;99.90
20416;DHT22;10367;52.202;5.996;2022-07-29T08:03:50;17.50;99.90
20416;DHT22;10367;52.202;5.996;2022-07-29T08:06:19;17.70;99.90
20416;DHT22;10367;52.202;5.996;2022-07-29T08:08:47;17.80;99.90
20416;DHT22;10367;52.202;5.996;2022-07-29T08:11:20;17.80;99.90
20416;DHT22;10367;52.202;5.996;2022-07-29T08:13:48;17.80;99.90
20416;DHT22;10367;52.202;5.996;2022-07-29T08:16:17;17.80;99.90
20416;DHT22;10367;52.202;5.996;2022-07-29T08:18:46;17.80;99.90
20416;DHT22;10367;52.202;5.996;2022-07-29T08:21:15;17.80;99.90
20416;DHT22;10367;52.202;5.996;2022-07-29T08:23:44;17.90;99.90
20416;DHT22;10367;52.202;5.996;2022-07-29T08:26:26;17.90;99.90
20416;DHT22;10367;52.202;5.996;2022-07-29T08:28:55;18.00;99.90
20416;DHT22;10367;52.202;5.996;2022-07-29T08:31:23;18.10;99.90
20416;DHT22;10367;52.202;5.996;2022-07-29T08:33:52;18.10;99.90
20416;DHT22;10367;52.202;5.996;2022-07-29T08:36:21;18.00;99.90
20416;DHT22;10367;52.202;5.996;2022-07-29T08:38:49;18.10;99.90
20416;DHT22;10367;52.202;5.996;2022-07-29T08:41:18;18.10;99.90
20416;DHT22;10367;52.202;5.996;2022-07-29T08:43:49;18.20;99.90
20416;DHT22;10367;52.202;5.996;2022-07-29T08:46:18;18.40;99.90
20416;DHT22;10367;52.202;5.996;2022-07-29T08:48:48;18.40;99.90
20416;DHT22;10367;52.202;5.996;2022-07-29T08:51:18;18.30;99.90
20416;DHT22;10367;52.202;5.996;2022-07-29T08:53:49;18.40;99.90
20416;DHT22;10367;52.202;5.996;2022-07-29T08:56:19;18.40;99.90
20416;DHT22;10367;52.202;5.996;2022-07-29T08:58:50;18.50;99.90
20416;DHT22;10367;52.202;5.996;2022-07-29T09:01:24;18.60;99.90
20416;DHT22;10367;52.202;5.996;2022-07-29T09:04:11;18.60;99.90
20416;DHT22;10367;52.202;5.996;2022-07-29T09:06:44;18.70;99.90
20416;DHT22;10367;52.202;5.996;2022-07-29T09:09:13;18.80;99.90
20416;DHT22;10367;52.202;5.996;2022-07-29T09:11:42;18.90;99.90
20416;DHT22;10367;52.202;5.996;2022-07-29T09:14:13;19.10;99.90
20416;DHT22;10367;52.202;5.996;2022-07-29T09:16:47;19.30;99.90
20416;DHT22;10367;52.202;5.996;2022-07-29T09:19:23;19.40;99.90
20416;DHT22;10367;52.202;5.996;2022-07-29T09:21:53;19.40;99.90
20416;DHT22;10367;52.202;5.996;2022-07-29T09:24:38;19.40;99.90
20416;DHT22;10367;52.202;5.996;2022-07-29T09:27:18;19.60;99.90
20416;DHT22;10367;52.202;5.996;2022-07-29T09:29:55;19.70;99.90
20416;DHT22;10367;52.202;5.996;2022-07-29T09:32:25;19.80;99.90
20416;DHT22;10367;52.202;5.996;2022-07-29T09:35:20;19.70;99.90
20416;DHT22;10367;52.202;5.996;2022-07-29T09:37:49;19.70;99.90
20416;DHT22;10367;52.202;5.996;2022-07-29T09:40:20;19.80;99.90
20416;DHT22;10367;52.202;5.996;2022-07-29T09:42:50;19.90;99.90
20416;DHT22;10367;52.202;5.996;2022-07-29T09:45:29;20.00;99.90
20416;DHT22;10367;52.202;5.996;2022-07-29T09:47:58;20.10;99.90
20416;DHT22;10367;52.202;5.996;2022-07-29T09:50:37;20.10;99.90
20416;DHT22;10367;52.202;5.996;2022-07-29T09:53:06;20.20;99.90
20416;DHT22;10367;52.202;5.996;2022-07-29T09:55:49;20.40;99.90
20416;DHT22;10367;52.202;5.996;2022-07-29T09:58:20;20.40;99.90
20416;DHT22;10367;52.202;5.996;2022-07-29T10:00:51;20.60;99.90
20416;DHT22;10367;52.202;5.996;2022-07-29T10:03:20;20.80;99.90
20416;DHT22;10367;52.202;5.996;2022-07-29T10:06:05;20.60;99.90
20416;DHT22;10367;52.202;5.996;2022-07-29T10:08:35;20.60;99.90
20416;DHT22;10367;52.202;5.996;2022-07-29T10:11:14;20.50;99.90
20416;DHT22;10367;52.202;5.996;2022-07-29T10:13:44;20.50;99.90
20416;DHT22;10367;52.202;5.996;2022-07-29T10:16:15;20.40;99.90
20416;DHT22;10367;52.202;5.996;2022-07-29T10:18:45;20.50;99.90
20416;DHT22;10367;52.202;5.996;2022-07-29T10:21:14;20.50;99.90
20416;DHT22;10367;52.202;5.996;2022-07-29T10:24:02;20.50;99.90
20416;DHT22;10367;52.202;5.996;2022-07-29T10:26:32;20.50;99.90
20416;DHT22;10367;52.202;5.996;2022-07-29T10:29:01;20.50;99.90
20416;DHT22;10367;52.202;5.996;2022-07-29T10:31:40;20.60;99.90
20416;DHT22;10367;52.202;5.996;2022-07-29T10:34:16;20.50;99.90
20416;DHT22;10367;52.202;5.996;2022-07-29T10:36:54;20.50;99.90
20416;DHT22;10367;52.202;5.996;2022-07-29T10:39:37;20.50;99.90
20416;DHT22;10367;52.202;5.996;2022-07-29T10:42:17;20.50;99.90
20416;DHT22;10367;52.202;5.996;2022-07-29T10:44:59;20.70;99.90
20416;DHT22;10367;52.202;5.996;2022-07-29T10:47:31;20.70;99.90
20416;DHT22;10367;52.202;5.996;2022-07-29T10:50:03;20.80;99.90
20416;DHT22;10367;52.202;5.996;2022-07-29T10:52:56;21.10;99.90
20416;DHT22;10367;52.202;5.996;2022-07-29T10:55:33;21.50;99.90
20416;DHT22;10367;52.202;5.996;2022-07-29T10:58:14;21.70;99.90
20416;DHT22;10367;52.202;5.996;2022-07-29T11:00:46;22.00;99.90
20416;DHT22;10367;52.202;5.996;2022-07-29T11:03:44;22.30;99.90
20416;DHT22;10367;52.202;5.996;2022-07-29T11:06:17;22.50;99.90
20416;DHT22;10367;52.202;5.996;2022-07-29T11:09:16;22.70;99.90
20416;DHT22;10367;52.202;5.996;2022-07-29T11:11:52;22.60;99.90
20416;DHT22;10367;52.202;5.996;2022-07-29T11:14:55;22.60;99.90
20416;DHT22;10367;52.202;5.996;2022-07-29T11:17:26;22.50;99.90
20416;DHT22;10367;52.202;5.996;2022-07-29T11:20:36;22.60;99.90
20416;DHT22;10367;52.202;5.996;2022-07-29T11:23:23;22.50;99.90
20416;DHT22;10367;52.202;5.996;2022-07-29T11:26:16;22.60;99.90
20416;DHT22;10367;52.202;5.996;2022-07-29T11:28:57;22.70;99.90
20416;DHT22;10367;52.202;5.996;2022-07-29T11:31:36;22.50;99.90
20416;DHT22;10367;52.202;5.996;2022-07-29T11:34:19;22.60;99.90
20416;DHT22;10367;52.202;5.996;2022-07-29T11:37:15;22.60;99.90
20416;DHT22;10367;52.202;5.996;2022-07-29T11:39:47;22.60;99.90
20416;DHT22;10367;52.202;5.996;2022-07-29T11:42:54;22.80;99.90
20416;DHT22;10367;52.202;5.996;2022-07-29T11:45:26;23.30;99.90
20416;DHT22;10367;52.202;5.996;2022-07-29T11:48:16;23.00;99.90
20416;DHT22;10367;52.202;5.996;2022-07-29T11:50:58;23.00;99.90
20416;DHT22;10367;52.202;5.996;2022-07-29T11:53:28;22.60;99.90
20416;DHT22;10367;52.202;5.996;2022-07-29T11:56:00;22.60;99.90
20416;DHT22;10367;52.202;5.996;2022-07-29T11:58:30;22.90;99.90
20416;DHT22;10367;52.202;5.996;2022-07-29T12:01:00;23.00;99.90
20416;DHT22;10367;52.202;5.996;2022-07-29T12:03:32;22.90;99.90
20416;DHT22;10367;52.202;5.996;2022-07-29T12:06:21;23.00;99.90
20416;DHT22;10367;52.202;5.996;2022-07-29T12:08:51;23.30;99.90
20416;DHT22;10367;52.202;5.996;2022-07-29T12:11:21;23.70;99.90
20416;DHT22;10367;52.202;5.996;2022-07-29T12:13:50;23.90;99.90
20416;DHT22;10367;52.202;5.996;2022-07-29T12:16:20;23.90;99.90
20416;DHT22;10367;52.202;5.996;2022-07-29T12:18:59;23.70;99.90
20416;DHT22;10367;52.202;5.996;2022-07-29T12:21:33;23.80;99.90
20416;DHT22;10367;52.202;5.996;2022-07-29T12:24:21;24.20;99.90
20416;DHT22;10367;52.202;5.996;2022-07-29T12:26:55;24.40;99.90
20416;DHT22;10367;52.202;5.996;2022-07-29T12:29:25;24.40;99.90
20416;DHT22;10367;52.202;5.996;2022-07-29T12:32:02;24.40;99.90
20416;DHT22;10367;52.202;5.996;2022-07-29T12:34:45;24.70;99.90
20416;DHT22;10367;52.202;5.996;2022-07-29T12:37:14;24.90;98.70
20416;DHT22;10367;52.202;5.996;2022-07-29T12:39:44;25.20;97.70
20416;DHT22;10367;52.202;5.996;2022-07-29T12:42:14;25.10;96.70
20416;DHT22;10367;52.202;5.996;2022-07-29T12:44:46;25.40;96.10
20416;DHT22;10367;52.202;5.996;2022-07-29T12:47:15;25.80;95.10
20416;DHT22;10367;52.202;5.996;2022-07-29T12:49:47;26.00;94.60
20416;DHT22;10367;52.202;5.996;2022-07-29T12:52:29;26.40;93.80
20416;DHT22;10367;52.202;5.996;2022-07-29T12:55:00;26.40;92.50
20416;DHT22;10367;52.202;5.996;2022-07-29T12:57:29;25.90;93.00
20416;DHT22;10367;52.202;5.996;2022-07-29T13:00:04;26.10;92.10
20416;DHT22;10367;52.202;5.996;2022-07-29T13:02:34;25.80;91.60
20416;DHT22;10367;52.202;5.996;2022-07-29T13:05:05;25.80;92.00
20416;DHT22;10367;52.202;5.996;2022-07-29T13:07:36;25.70;90.90
20416;DHT22;10367;52.202;5.996;2022-07-29T13:10:25;25.80;90.90
20416;DHT22;10367;52.202;5.996;2022-07-29T13:13:07;26.20;90.60
20416;DHT22;10367;52.202;5.996;2022-07-29T13:15:37;26.80;88.80
20416;DHT22;10367;52.202;5.996;2022-07-29T13:18:26;26.90;88.00
20416;DHT22;10367;52.202;5.996;2022-07-29T13:20:55;26.60;86.50
20416;DHT22;10367;52.202;5.996;2022-07-29T13:23:25;26.60;86.50
20416;DHT22;10367;52.202;5.996;2022-07-29T13:26:05;26.50;85.30
20416;DHT22;10367;52.202;5.996;2022-07-29T13:28:34;26.70;86.10
20416;DHT22;10367;52.202;5.996;2022-07-29T13:31:02;27.20;84.70
20416;DHT22;10367;52.202;5.996;2022-07-29T13:33:32;27.20;83.70
20416;DHT22;10367;52.202;5.996;2022-07-29T13:36:01;26.80;84.70
20416;DHT22;10367;52.202;5.996;2022-07-29T13:38:29;26.90;84.50
20416;DHT22;10367;52.202;5.996;2022-07-29T13:41:00;26.90;84.10
20416;DHT22;10367;52.202;5.996;2022-07-29T13:43:29;27.00;83.90
20416;DHT22;10367;52.202;5.996;2022-07-29T13:45:58;26.70;84.30
20416;DHT22;10367;52.202;5.996;2022-07-29T13:48:26;26.50;84.20
20416;DHT22;10367;52.202;5.996;2022-07-29T13:50:56;26.50;84.00
20416;DHT22;10367;52.202;5.996;2022-07-29T13:53:25;26.60;83.40
20416;DHT22;10367;52.202;5.996;2022-07-29T13:55:55;26.30;83.50
20416;DHT22;10367;52.202;5.996;2022-07-29T13:58:25;26.60;82.70
20416;DHT22;10367;52.202;5.996;2022-07-29T14:00:54;26.70;82.30
20416;DHT22;10367;52.202;5.996;2022-07-29T14:03:24;26.80;81.70
20416;DHT22;10367;52.202;5.996;2022-07-29T14:05:53;26.50;81.70
20416;DHT22;10367;52.202;5.996;2022-07-29T14:08:23;26.50;81.70
20416;DHT22;10367;52.202;5.996;2022-07-29T14:10:52;26.50;81.70
20416;DHT22;10367;52.202;5.996;2022-07-29T14:13:20;26.80;81.10
20416;DHT22;10367;52.202;5.996;2022-07-29T14:15:54;27.00;80.50
20416;DHT22;10367;52.202;5.996;2022-07-29T14:18:23;27.10;79.90
20416;DHT22;10367;52.202;5.996;2022-07-29T14:20:52;27.10;79.30
20416;DHT22;10367;52.202;5.996;2022-07-29T14:23:20;27.20;79.00
20416;DHT22;10367;52.202;5.996;2022-07-29T14:25:49;27.80;77.80
20416;DHT22;10367;52.202;5.996;2022-07-29T14:28:19;28.10;76.80
20416;DHT22;10367;52.202;5.996;2022-07-29T14:30:48;28.30;75.90
20416;DHT22;10367;52.202;5.996;2022-07-29T14:33:18;28.40;75.30
20416;DHT22;10367;52.202;5.996;2022-07-29T14:35:46;28.40;74.90
20416;DHT22;10367;52.202;5.996;2022-07-29T14:38:15;28.60;73.90
20416;DHT22;10367;52.202;5.996;2022-07-29T14:40:44;28.70;73.20
20416;DHT22;10367;52.202;5.996;2022-07-29T14:43:17;28.80;72.40
20416;DHT22;10367;52.202;5.996;2022-07-29T14:45:48;28.60;72.70
20416;DHT22;10367;52.202;5.996;2022-07-29T14:48:18;28.90;72.10
20416;DHT22;10367;52.202;5.996;2022-07-29T14:50:46;29.00;71.50
20416;DHT22;10367;52.202;5.996;2022-07-29T14:53:15;28.80;71.90
20416;DHT22;10367;52.202;5.996;2022-07-29T14:55:44;28.90;71.60
20416;DHT22;10367;52.202;5.996;2022-07-29T14:58:12;29.10;70.90
20416;DHT22;10367;52.202;5.996;2022-07-29T15:00:43;28.80;70.40
20416;DHT22;10367;52.202;5.996;2022-07-29T15:03:12;29.00;70.00
20416;DHT22;10367;52.202;5.996;2022-07-29T15:05:51;29.30;68.90
20416;DHT22;10367;52.202;5.996;2022-07-29T15:08:20;29.80;68.50
20416;DHT22;10367;52.202;5.996;2022-07-29T15:10:49;30.30;68.00
20416;DHT22;10367;52.202;5.996;2022-07-29T15:13:18;29.70;67.30
20416;DHT22;10367;52.202;5.996;2022-07-29T15:15:48;29.60;67.40
20416;DHT22;10367;52.202;5.996;2022-07-29T15:18:26;29.60;66.70
20416;DHT22;10367;52.202;5.996;2022-07-29T15:20:56;29.30;67.20
20416;DHT22;10367;52.202;5.996;2022-07-29T15:23:25;29.40;67.10
20416;DHT22;10367;52.202;5.996;2022-07-29T15:25:53;29.30;66.70
20416;DHT22;10367;52.202;5.996;2022-07-29T15:28:22;29.30;66.70
20416;DHT22;10367;52.202;5.996;2022-07-29T15:30:51;29.50;66.10
20416;DHT22;10367;52.202;5.996;2022-07-29T15:33:20;29.50;66.00
20416;DHT22;10367;52.202;5.996;2022-07-29T15:35:48;29.60;65.60
20416;DHT22;10367;52.202;5.996;2022-07-29T15:38:18;29.30;65.80
20416;DHT22;10367;52.202;5.996;2022-07-29T15:40:55;29.20;65.90
20416;DHT22;10367;52.202;5.996;2022-07-29T15:43:24;29.20;65.70
20416;DHT22;10367;52.202;5.996;2022-07-29T15:45:53;29.10;65.70
20416;DHT22;10367;52.202;5.996;2022-07-29T15:48:39;29.20;65.20
20416;DHT22;10367;52.202;5.996;2022-07-29T15:51:08;29.40;65.00
20416;DHT22;10367;52.202;5.996;2022-07-29T15:53:38;29.90;63.80
20416;DHT22;10367;52.202;5.996;2022-07-29T15:56:06;30.00;63.20
20416;DHT22;10367;52.202;5.996;2022-07-29T15:58:35;29.80;63.10
20416;DHT22;10367;52.202;5.996;2022-07-29T16:01:04;29.30;63.40
20416;DHT22;10367;52.202;5.996;2022-07-29T16:03:32;29.10;63.40